Aérodrome :
LOGIN :

S'inscrire | Disclaimer

   EN    FR    IT 

 










Légende :    VFR   VFR Marginal   IFR   IFR Intensif   IFR Très Intensif
Visi : 
Plafond : 
>= 8 km
>= 3000ft
5 à 8 km
1000 à 3000 ft
1500m à 5 km
500 à 1000 ft
800 à 1500m
200 à 500 ft
< 800m
< 200 ft
Symboles :   Orages  Brouillard  Fortes neiges  Fortes précipitations  Vent > 20 kt
SIGMETs :   Divers  Orages  Givrage  Turbulence  Onde Orograph.  Cendres Volcan.







- Altitude de l'aérodrome : 370 ft


EBBE - Beauvechain AB

DERNIER METAR :
  • 221555Z 01005KT 9999 FEW040 13/05 Q1033 BLU BLU

METARs EXPIRÉS :
  • 221525Z 01007KT 9999 FEW040 14/05 Q1033 BLU BLU
  • 221455Z 35008KT 9999 FEW038 14/05 Q1033 BLU BLU
  • 221425Z 35007KT 9999 FEW034 15/06 Q1033 BLU BLU
  • 221355Z 35009KT 9999 FEW032 15/05 Q1033 BLU BLU
  • 221325Z 01011KT 9999 FEW032 15/06 Q1033 BLU BLU
  • 221255Z 02009KT 9999 FEW026 14/07 Q1033 BLU BLU

TAF TAF EBBE
Valide du 22 à 13h jusqu'au 22 à 22h UTC


221141Z 2213/2222 01010KT 9999 FEW020 SCT030
Pas de NOTAMs connus pour ce terrain.



MET'MAP, la Météo Aéronautique d'un coup d'oeil ! - Copyright ORBIFLY Décembre 2007 - Disclaimer

ORBIFLY MET'MAP TEAM :

Programmation & Développement : Alexandra Zaïnal
Conception & Développement : Baudouin d'Aumeries
Co-Programmation & Développement : Marc-Olivier Méhu
Soutien technique & logistique : Manuel Goepfert

Contact : metmap@orbifly.com




SOURCES & CREDITS :

   NOAA